sensor_id;sensor_type;location;lat;lon;timestamp;P1;durP1;ratioP1;P2;durP2;ratioP2
7753;SDS011;3921;42.266;23.122;2022-11-27T00:00:33;23.03;;;15.37;;
7753;SDS011;3921;42.266;23.122;2022-11-27T00:06:45;24.53;;;14.97;;
7753;SDS011;3921;42.266;23.122;2022-11-27T00:26:13;25.93;;;14.53;;
7753;SDS011;3921;42.266;23.122;2022-11-27T00:28:48;25.70;;;15.27;;
7753;SDS011;3921;42.266;23.122;2022-11-27T00:31:49;25.20;;;15.83;;
7753;SDS011;3921;42.266;23.122;2022-11-27T00:37:56;29.50;;;16.90;;
7753;SDS011;3921;42.266;23.122;2022-11-27T00:40:33;29.20;;;16.87;;
7753;SDS011;3921;42.266;23.122;2022-11-27T00:43:16;26.00;;;15.97;;
7753;SDS011;3921;42.266;23.122;2022-11-27T00:49:15;27.87;;;15.83;;
7753;SDS011;3921;42.266;23.122;2022-11-27T00:52:01;27.10;;;15.80;;
7753;SDS011;3921;42.266;23.122;2022-11-27T00:55:11;22.33;;;14.37;;
7753;SDS011;3921;42.266;23.122;2022-11-27T00:57:53;23.97;;;14.53;;
7753;SDS011;3921;42.266;23.122;2022-11-27T01:00:36;22.37;;;13.90;;
7753;SDS011;3921;42.266;23.122;2022-11-27T01:03:07;22.57;;;14.20;;
7753;SDS011;3921;42.266;23.122;2022-11-27T01:08:45;22.33;;;13.60;;
7753;SDS011;3921;42.266;23.122;2022-11-27T01:11:22;22.60;;;13.87;;
7753;SDS011;3921;42.266;23.122;2022-11-27T01:14:01;24.53;;;15.27;;
7753;SDS011;3921;42.266;23.122;2022-11-27T01:19:46;24.60;;;14.93;;
7753;SDS011;3921;42.266;23.122;2022-11-27T01:22:48;23.10;;;14.57;;
7753;SDS011;3921;42.266;23.122;2022-11-27T01:25:50;25.13;;;15.20;;
7753;SDS011;3921;42.266;23.122;2022-11-27T01:28:23;26.30;;;15.40;;
7753;SDS011;3921;42.266;23.122;2022-11-27T01:30:56;24.70;;;15.27;;
7753;SDS011;3921;42.266;23.122;2022-11-27T01:33:32;22.77;;;14.07;;
7753;SDS011;3921;42.266;23.122;2022-11-27T01:36:05;23.40;;;15.10;;
7753;SDS011;3921;42.266;23.122;2022-11-27T01:38:33;21.67;;;14.77;;
7753;SDS011;3921;42.266;23.122;2022-11-27T01:41:07;24.40;;;15.67;;
7753;SDS011;3921;42.266;23.122;2022-11-27T02:39:13;17.93;;;12.83;;
7753;SDS011;3921;42.266;23.122;2022-11-27T02:41:56;17.90;;;12.27;;
7753;SDS011;3921;42.266;23.122;2022-11-27T02:44:36;17.23;;;11.97;;
7753;SDS011;3921;42.266;23.122;2022-11-27T02:47:11;17.53;;;11.77;;
7753;SDS011;3921;42.266;23.122;2022-11-27T02:50:10;14.67;;;9.37;;
7753;SDS011;3921;42.266;23.122;2022-11-27T02:52:53;13.53;;;8.57;;
7753;SDS011;3921;42.266;23.122;2022-11-27T02:55:42;13.00;;;9.33;;
7753;SDS011;3921;42.266;23.122;2022-11-27T02:58:34;15.33;;;9.67;;
7753;SDS011;3921;42.266;23.122;2022-11-27T03:01:26;16.37;;;10.00;;
7753;SDS011;3921;42.266;23.122;2022-11-27T03:04:03;15.13;;;9.57;;
7753;SDS011;3921;42.266;23.122;2022-11-27T03:06:58;16.20;;;10.97;;
7753;SDS011;3921;42.266;23.122;2022-11-27T03:13:09;14.57;;;9.20;;
7753;SDS011;3921;42.266;23.122;2022-11-27T03:17:40;13.20;;;8.90;;
7753;SDS011;3921;42.266;23.122;2022-11-27T03:59:58;17.37;;;11.93;;
7753;SDS011;3921;42.266;23.122;2022-11-27T04:02:57;15.60;;;10.67;;
7753;SDS011;3921;42.266;23.122;2022-11-27T04:06:29;17.00;;;11.07;;
7753;SDS011;3921;42.266;23.122;2022-11-27T04:08:42;17.47;;;10.93;;
7753;SDS011;3921;42.266;23.122;2022-11-27T04:11:31;15.73;;;11.40;;
7753;SDS011;3921;42.266;23.122;2022-11-27T04:14:02;18.10;;;12.03;;
7753;SDS011;3921;42.266;23.122;2022-11-27T04:16:31;17.17;;;10.57;;
7753;SDS011;3921;42.266;23.122;2022-11-27T04:19:03;16.40;;;10.43;;
7753;SDS011;3921;42.266;23.122;2022-11-27T04:21:58;17.23;;;11.30;;
7753;SDS011;3921;42.266;23.122;2022-11-27T04:24:26;19.10;;;11.10;;
7753;SDS011;3921;42.266;23.122;2022-11-27T04:26:57;16.40;;;11.67;;
7753;SDS011;3921;42.266;23.122;2022-11-27T04:29:27;19.10;;;11.40;;
7753;SDS011;3921;42.266;23.122;2022-11-27T04:31:58;19.23;;;12.23;;
7753;SDS011;3921;42.266;23.122;2022-11-27T04:34:51;20.20;;;12.43;;
7753;SDS011;3921;42.266;23.122;2022-11-27T04:37:29;19.53;;;12.77;;
7753;SDS011;3921;42.266;23.122;2022-11-27T04:39:56;17.53;;;11.60;;
7753;SDS011;3921;42.266;23.122;2022-11-27T04:43:02;16.60;;;10.90;;
7753;SDS011;3921;42.266;23.122;2022-11-27T04:45:49;15.33;;;10.23;;
7753;SDS011;3921;42.266;23.122;2022-11-27T04:50:59;17.23;;;10.43;;
7753;SDS011;3921;42.266;23.122;2022-11-27T04:53:28;16.33;;;10.60;;
7753;SDS011;3921;42.266;23.122;2022-11-27T04:59:18;17.10;;;10.03;;
7753;SDS011;3921;42.266;23.122;2022-11-27T05:03:06;15.80;;;10.57;;
7753;SDS011;3921;42.266;23.122;2022-11-27T05:05:09;16.67;;;10.80;;
7753;SDS011;3921;42.266;23.122;2022-11-27T05:14:49;18.50;;;12.00;;
7753;SDS011;3921;42.266;23.122;2022-11-27T05:24:12;16.17;;;11.23;;
7753;SDS011;3921;42.266;23.122;2022-11-27T05:26:53;14.37;;;10.93;;
7753;SDS011;3921;42.266;23.122;2022-11-27T05:29:24;18.97;;;11.10;;
7753;SDS011;3921;42.266;23.122;2022-11-27T05:31:52;17.27;;;11.50;;
7753;SDS011;3921;42.266;23.122;2022-11-27T05:36:21;18.33;;;10.90;;
7753;SDS011;3921;42.266;23.122;2022-11-27T05:37:22;15.87;;;11.10;;
7753;SDS011;3921;42.266;23.122;2022-11-27T05:40:06;16.97;;;11.30;;
7753;SDS011;3921;42.266;23.122;2022-11-27T05:42:56;16.97;;;10.97;;
7753;SDS011;3921;42.266;23.122;2022-11-27T05:45:44;17.43;;;11.33;;
7753;SDS011;3921;42.266;23.122;2022-11-27T05:48:16;18.30;;;12.50;;
7753;SDS011;3921;42.266;23.122;2022-11-27T05:50:49;20.70;;;12.00;;
7753;SDS011;3921;42.266;23.122;2022-11-27T06:19:57;19.77;;;12.63;;
7753;SDS011;3921;42.266;23.122;2022-11-27T06:22:24;19.13;;;12.47;;
7753;SDS011;3921;42.266;23.122;2022-11-27T07:33:03;29.07;;;18.13;;
7753;SDS011;3921;42.266;23.122;2022-11-27T07:39:54;27.70;;;17.20;;
7753;SDS011;3921;42.266;23.122;2022-11-27T07:41:37;24.67;;;16.10;;
7753;SDS011;3921;42.266;23.122;2022-11-27T07:44:08;28.93;;;18.13;;
7753;SDS011;3921;42.266;23.122;2022-11-27T07:46:50;23.63;;;16.13;;
7753;SDS011;3921;42.266;23.122;2022-11-27T07:49:22;25.57;;;16.57;;
7753;SDS011;3921;42.266;23.122;2022-11-27T07:52:19;24.60;;;14.67;;
7753;SDS011;3921;42.266;23.122;2022-11-27T07:55:02;25.10;;;15.70;;
7753;SDS011;3921;42.266;23.122;2022-11-27T07:57:47;25.80;;;15.43;;
7753;SDS011;3921;42.266;23.122;2022-11-27T08:00:52;32.23;;;17.10;;
7753;SDS011;3921;42.266;23.122;2022-11-27T08:06:47;30.37;;;17.60;;
7753;SDS011;3921;42.266;23.122;2022-11-27T08:46:38;29.23;;;17.40;;
7753;SDS011;3921;42.266;23.122;2022-11-27T08:49:37;32.47;;;19.93;;
7753;SDS011;3921;42.266;23.122;2022-11-27T08:55:50;29.97;;;18.80;;
7753;SDS011;3921;42.266;23.122;2022-11-27T11:10:33;22.53;;;13.97;;
7753;SDS011;3921;42.266;23.122;2022-11-27T11:13:50;18.93;;;12.60;;
7753;SDS011;3921;42.266;23.122;2022-11-27T11:16:27;24.50;;;14.40;;
7753;SDS011;3921;42.266;23.122;2022-11-27T11:21:28;21.50;;;14.10;;
7753;SDS011;3921;42.266;23.122;2022-11-27T11:23:02;21.83;;;14.37;;
7753;SDS011;3921;42.266;23.122;2022-11-27T11:29:34;27.73;;;15.07;;
7753;SDS011;3921;42.266;23.122;2022-11-27T11:32:04;29.63;;;16.03;;
7753;SDS011;3921;42.266;23.122;2022-11-27T11:34:47;23.53;;;12.97;;
7753;SDS011;3921;42.266;23.122;2022-11-27T11:37:48;20.97;;;13.80;;
7753;SDS011;3921;42.266;23.122;2022-11-27T11:40:57;20.47;;;12.90;;
7753;SDS011;3921;42.266;23.122;2022-11-27T11:43:57;24.33;;;14.90;;
7753;SDS011;3921;42.266;23.122;2022-11-27T11:47:02;23.57;;;14.37;;
7753;SDS011;3921;42.266;23.122;2022-11-27T11:50:10;21.03;;;13.60;;
7753;SDS011;3921;42.266;23.122;2022-11-27T11:53:39;24.63;;;14.60;;
7753;SDS011;3921;42.266;23.122;2022-11-27T12:09:22;19.90;;;12.00;;
7753;SDS011;3921;42.266;23.122;2022-11-27T12:13:35;22.07;;;12.27;;
7753;SDS011;3921;42.266;23.122;2022-11-27T12:15:44;20.47;;;13.10;;
7753;SDS011;3921;42.266;23.122;2022-11-27T12:18:40;21.40;;;13.53;;
7753;SDS011;3921;42.266;23.122;2022-11-27T12:21:41;21.10;;;13.37;;
7753;SDS011;3921;42.266;23.122;2022-11-27T12:24:35;19.57;;;12.33;;
7753;SDS011;3921;42.266;23.122;2022-11-27T12:29:02;21.17;;;13.93;;
7753;SDS011;3921;42.266;23.122;2022-11-27T12:30:47;20.97;;;13.10;;
7753;SDS011;3921;42.266;23.122;2022-11-27T12:34:09;18.27;;;12.50;;
7753;SDS011;3921;42.266;23.122;2022-11-27T12:37:10;20.50;;;12.90;;
7753;SDS011;3921;42.266;23.122;2022-11-27T12:40:06;17.63;;;11.23;;
7753;SDS011;3921;42.266;23.122;2022-11-27T12:42:55;19.07;;;11.80;;
7753;SDS011;3921;42.266;23.122;2022-11-27T12:45:50;19.73;;;11.80;;
7753;SDS011;3921;42.266;23.122;2022-11-27T12:51:52;17.20;;;12.23;;
7753;SDS011;3921;42.266;23.122;2022-11-27T12:54:26;20.97;;;12.17;;
7753;SDS011;3921;42.266;23.122;2022-11-27T12:57:12;15.60;;;11.30;;
7753;SDS011;3921;42.266;23.122;2022-11-27T12:59:47;17.60;;;11.07;;
7753;SDS011;3921;42.266;23.122;2022-11-27T13:02:37;19.37;;;11.40;;
7753;SDS011;3921;42.266;23.122;2022-11-27T13:05:37;15.47;;;10.47;;
7753;SDS011;3921;42.266;23.122;2022-11-27T13:08:19;17.03;;;11.40;;
7753;SDS011;3921;42.266;23.122;2022-11-27T13:11:14;13.13;;;9.63;;
7753;SDS011;3921;42.266;23.122;2022-11-27T13:14:09;15.43;;;10.47;;
7753;SDS011;3921;42.266;23.122;2022-11-27T13:16:41;14.93;;;10.33;;
7753;SDS011;3921;42.266;23.122;2022-11-27T13:19:22;14.57;;;9.23;;
7753;SDS011;3921;42.266;23.122;2022-11-27T13:21:59;14.60;;;8.00;;
7753;SDS011;3921;42.266;23.122;2022-11-27T13:24:36;10.23;;;7.63;;
7753;SDS011;3921;42.266;23.122;2022-11-27T13:27:06;11.50;;;7.47;;
7753;SDS011;3921;42.266;23.122;2022-11-27T13:32:50;13.57;;;7.43;;
7753;SDS011;3921;42.266;23.122;2022-11-27T13:35:43;12.77;;;8.50;;
7753;SDS011;3921;42.266;23.122;2022-11-27T13:38:25;11.60;;;5.07;;
7753;SDS011;3921;42.266;23.122;2022-11-27T13:41:09;8.50;;;5.47;;
7753;SDS011;3921;42.266;23.122;2022-11-27T13:44:29;7.90;;;5.23;;
7753;SDS011;3921;42.266;23.122;2022-11-27T13:52:02;20.40;;;9.30;;
7753;SDS011;3921;42.266;23.122;2022-11-27T13:53:28;10.77;;;6.73;;
7753;SDS011;3921;42.266;23.122;2022-11-27T13:56:07;9.23;;;6.33;;
7753;SDS011;3921;42.266;23.122;2022-11-27T13:59:06;10.73;;;7.23;;
7753;SDS011;3921;42.266;23.122;2022-11-27T14:01:50;11.23;;;6.73;;
7753;SDS011;3921;42.266;23.122;2022-11-27T14:07:38;8.17;;;6.07;;
7753;SDS011;3921;42.266;23.122;2022-11-27T14:10:14;7.90;;;5.77;;
7753;SDS011;3921;42.266;23.122;2022-11-27T14:12:51;7.60;;;5.67;;
7753;SDS011;3921;42.266;23.122;2022-11-27T14:15:56;7.10;;;5.53;;
7753;SDS011;3921;42.266;23.122;2022-11-27T14:18:28;8.10;;;5.50;;
7753;SDS011;3921;42.266;23.122;2022-11-27T14:20:58;8.37;;;5.00;;
7753;SDS011;3921;42.266;23.122;2022-11-27T14:23:35;8.80;;;5.00;;
7753;SDS011;3921;42.266;23.122;2022-11-27T14:26:33;8.00;;;4.97;;
7753;SDS011;3921;42.266;23.122;2022-11-27T14:29:18;6.77;;;4.67;;
7753;SDS011;3921;42.266;23.122;2022-11-27T14:32:07;5.23;;;4.20;;
7753;SDS011;3921;42.266;23.122;2022-11-27T14:38:12;7.57;;;5.17;;
7753;SDS011;3921;42.266;23.122;2022-11-27T15:01:18;6.03;;;4.37;;
7753;SDS011;3921;42.266;23.122;2022-11-27T15:04:32;6.40;;;4.80;;
7753;SDS011;3921;42.266;23.122;2022-11-27T15:07:10;6.50;;;3.70;;
7753;SDS011;3921;42.266;23.122;2022-11-27T15:09:48;8.37;;;4.37;;
7753;SDS011;3921;42.266;23.122;2022-11-27T15:12:25;6.57;;;4.40;;
7753;SDS011;3921;42.266;23.122;2022-11-27T15:15:28;6.33;;;4.53;;
7753;SDS011;3921;42.266;23.122;2022-11-27T15:24:43;5.93;;;4.03;;
7753;SDS011;3921;42.266;23.122;2022-11-27T15:30:21;7.90;;;4.20;;
7753;SDS011;3921;42.266;23.122;2022-11-27T15:33:52;6.67;;;3.90;;
7753;SDS011;3921;42.266;23.122;2022-11-27T15:36:14;5.60;;;4.20;;
7753;SDS011;3921;42.266;23.122;2022-11-27T15:41:03;5.00;;;4.33;;
7753;SDS011;3921;42.266;23.122;2022-11-27T15:42:16;6.00;;;4.53;;
7753;SDS011;3921;42.266;23.122;2022-11-27T15:45:16;6.73;;;4.30;;
7753;SDS011;3921;42.266;23.122;2022-11-27T15:53:17;5.00;;;3.37;;
7753;SDS011;3921;42.266;23.122;2022-11-27T15:58:00;8.40;;;4.70;;
7753;SDS011;3921;42.266;23.122;2022-11-27T16:07:15;6.40;;;4.50;;
7753;SDS011;3921;42.266;23.122;2022-11-27T16:10:09;7.23;;;4.63;;
7753;SDS011;3921;42.266;23.122;2022-11-27T16:20:19;5.43;;;3.43;;
7753;SDS011;3921;42.266;23.122;2022-11-27T16:22:48;5.83;;;3.93;;
7753;SDS011;3921;42.266;23.122;2022-11-27T16:26:34;4.93;;;3.37;;
7753;SDS011;3921;42.266;23.122;2022-11-27T16:28:42;5.13;;;3.20;;
7753;SDS011;3921;42.266;23.122;2022-11-27T16:32:18;5.70;;;4.17;;
7753;SDS011;3921;42.266;23.122;2022-11-27T16:37:26;6.87;;;4.33;;
7753;SDS011;3921;42.266;23.122;2022-11-27T16:42:51;6.17;;;4.33;;
7753;SDS011;3921;42.266;23.122;2022-11-27T16:45:20;7.30;;;4.00;;
7753;SDS011;3921;42.266;23.122;2022-11-27T16:47:47;6.53;;;3.40;;
7753;SDS011;3921;42.266;23.122;2022-11-27T16:50:26;5.13;;;3.20;;
7753;SDS011;3921;42.266;23.122;2022-11-27T16:55:49;4.70;;;3.70;;
7753;SDS011;3921;42.266;23.122;2022-11-27T16:58:19;8.50;;;5.20;;
7753;SDS011;3921;42.266;23.122;2022-11-27T17:00:46;8.03;;;5.77;;
7753;SDS011;3921;42.266;23.122;2022-11-27T17:03:20;9.63;;;6.43;;
7753;SDS011;3921;42.266;23.122;2022-11-27T17:05:49;9.60;;;6.57;;
7753;SDS011;3921;42.266;23.122;2022-11-27T17:08:39;9.83;;;7.70;;
7753;SDS011;3921;42.266;23.122;2022-11-27T17:11:10;11.80;;;7.87;;
7753;SDS011;3921;42.266;23.122;2022-11-27T17:13:52;5.93;;;4.70;;
7753;SDS011;3921;42.266;23.122;2022-11-27T17:16:23;5.33;;;3.97;;
7753;SDS011;3921;42.266;23.122;2022-11-27T17:18:53;5.63;;;3.87;;
7753;SDS011;3921;42.266;23.122;2022-11-27T17:21:25;6.40;;;4.00;;
7753;SDS011;3921;42.266;23.122;2022-11-27T17:24:15;4.97;;;3.77;;
7753;SDS011;3921;42.266;23.122;2022-11-27T17:26:44;7.87;;;5.10;;
7753;SDS011;3921;42.266;23.122;2022-11-27T17:29:15;9.13;;;5.83;;
7753;SDS011;3921;42.266;23.122;2022-11-27T17:31:49;11.90;;;7.40;;
7753;SDS011;3921;42.266;23.122;2022-11-27T17:37:07;15.20;;;9.03;;
7753;SDS011;3921;42.266;23.122;2022-11-27T17:39:40;14.07;;;9.37;;
7753;SDS011;3921;42.266;23.122;2022-11-27T17:42:22;11.50;;;8.17;;
7753;SDS011;3921;42.266;23.122;2022-11-27T17:44:50;24.97;;;14.03;;
7753;SDS011;3921;42.266;23.122;2022-11-27T17:47:17;31.47;;;18.90;;
7753;SDS011;3921;42.266;23.122;2022-11-27T17:49:44;29.27;;;17.67;;
7753;SDS011;3921;42.266;23.122;2022-11-27T17:52:13;27.90;;;17.03;;
7753;SDS011;3921;42.266;23.122;2022-11-27T17:54:41;23.43;;;15.10;;
7753;SDS011;3921;42.266;23.122;2022-11-27T17:57:12;19.00;;;12.30;;
7753;SDS011;3921;42.266;23.122;2022-11-27T17:59:39;16.70;;;11.60;;
7753;SDS011;3921;42.266;23.122;2022-11-27T18:02:06;23.57;;;15.50;;
7753;SDS011;3921;42.266;23.122;2022-11-27T18:04:38;18.93;;;12.47;;
7753;SDS011;3921;42.266;23.122;2022-11-27T18:07:05;25.90;;;17.27;;
7753;SDS011;3921;42.266;23.122;2022-11-27T18:09:32;35.07;;;22.00;;
7753;SDS011;3921;42.266;23.122;2022-11-27T18:12:00;37.30;;;23.80;;
7753;SDS011;3921;42.266;23.122;2022-11-27T18:14:33;43.03;;;22.83;;
7753;SDS011;3921;42.266;23.122;2022-11-27T18:17:05;34.63;;;21.47;;
7753;SDS011;3921;42.266;23.122;2022-11-27T18:19:32;35.67;;;21.10;;
7753;SDS011;3921;42.266;23.122;2022-11-27T18:22:00;37.73;;;22.77;;
7753;SDS011;3921;42.266;23.122;2022-11-27T18:24:28;30.03;;;20.23;;
7753;SDS011;3921;42.266;23.122;2022-11-27T18:30:09;20.87;;;13.50;;
7753;SDS011;3921;42.266;23.122;2022-11-27T18:32:37;16.90;;;11.40;;
7753;SDS011;3921;42.266;23.122;2022-11-27T18:35:07;20.23;;;12.73;;
7753;SDS011;3921;42.266;23.122;2022-11-27T18:37:37;16.60;;;11.97;;
7753;SDS011;3921;42.266;23.122;2022-11-27T18:40:12;16.57;;;10.70;;
7753;SDS011;3921;42.266;23.122;2022-11-27T18:42:39;11.53;;;8.43;;
7753;SDS011;3921;42.266;23.122;2022-11-27T18:45:06;14.93;;;9.47;;
7753;SDS011;3921;42.266;23.122;2022-11-27T18:47:35;17.10;;;10.47;;
7753;SDS011;3921;42.266;23.122;2022-11-27T18:50:10;24.03;;;14.33;;
7753;SDS011;3921;42.266;23.122;2022-11-27T18:52:40;24.77;;;15.50;;
7753;SDS011;3921;42.266;23.122;2022-11-27T18:55:18;33.17;;;21.70;;
7753;SDS011;3921;42.266;23.122;2022-11-27T18:57:49;29.93;;;19.03;;
7753;SDS011;3921;42.266;23.122;2022-11-27T19:00:21;24.03;;;16.47;;
7753;SDS011;3921;42.266;23.122;2022-11-27T19:03:29;28.53;;;18.00;;
7753;SDS011;3921;42.266;23.122;2022-11-27T19:06:00;19.30;;;12.23;;
7753;SDS011;3921;42.266;23.122;2022-11-27T19:09:04;9.80;;;7.07;;
7753;SDS011;3921;42.266;23.122;2022-11-27T19:11:51;8.70;;;5.93;;
7753;SDS011;3921;42.266;23.122;2022-11-27T19:14:46;9.13;;;6.73;;
7753;SDS011;3921;42.266;23.122;2022-11-27T19:18:10;8.67;;;5.70;;
7753;SDS011;3921;42.266;23.122;2022-11-27T19:24:54;10.13;;;6.37;;
7753;SDS011;3921;42.266;23.122;2022-11-27T19:28:00;9.13;;;6.30;;
7753;SDS011;3921;42.266;23.122;2022-11-27T19:38:14;6.03;;;4.53;;
7753;SDS011;3921;42.266;23.122;2022-11-27T19:41:00;13.87;;;8.97;;
7753;SDS011;3921;42.266;23.122;2022-11-27T19:44:00;15.90;;;9.80;;
7753;SDS011;3921;42.266;23.122;2022-11-27T19:54:20;29.23;;;16.10;;
7753;SDS011;3921;42.266;23.122;2022-11-27T19:57:39;61.83;;;32.53;;
7753;SDS011;3921;42.266;23.122;2022-11-27T20:00:43;59.00;;;30.73;;
7753;SDS011;3921;42.266;23.122;2022-11-27T21:27:46;13.70;;;9.60;;
7753;SDS011;3921;42.266;23.122;2022-11-27T21:30:15;15.37;;;9.93;;
7753;SDS011;3921;42.266;23.122;2022-11-27T21:32:44;14.73;;;10.10;;
7753;SDS011;3921;42.266;23.122;2022-11-27T21:35:29;15.27;;;10.40;;
7753;SDS011;3921;42.266;23.122;2022-11-27T21:37:57;15.43;;;10.57;;
7753;SDS011;3921;42.266;23.122;2022-11-27T21:40:55;16.07;;;10.30;;
7753;SDS011;3921;42.266;23.122;2022-11-27T21:46:54;15.43;;;9.63;;
7753;SDS011;3921;42.266;23.122;2022-11-27T21:49:47;14.73;;;10.03;;
7753;SDS011;3921;42.266;23.122;2022-11-27T21:52:24;12.73;;;9.03;;
7753;SDS011;3921;42.266;23.122;2022-11-27T21:55:05;15.50;;;10.10;;
7753;SDS011;3921;42.266;23.122;2022-11-27T21:57:52;14.77;;;9.67;;
7753;SDS011;3921;42.266;23.122;2022-11-27T22:00:20;15.43;;;9.80;;
7753;SDS011;3921;42.266;23.122;2022-11-27T22:06:25;15.30;;;9.43;;
7753;SDS011;3921;42.266;23.122;2022-11-27T22:08:57;14.63;;;8.63;;
7753;SDS011;3921;42.266;23.122;2022-11-27T22:11:50;13.70;;;8.93;;
7753;SDS011;3921;42.266;23.122;2022-11-27T22:14:27;13.57;;;8.77;;
7753;SDS011;3921;42.266;23.122;2022-11-27T22:17:34;15.03;;;9.30;;
7753;SDS011;3921;42.266;23.122;2022-11-27T22:20:15;12.77;;;8.23;;
7753;SDS011;3921;42.266;23.122;2022-11-27T22:22:45;14.63;;;9.90;;
7753;SDS011;3921;42.266;23.122;2022-11-27T22:25:12;11.80;;;8.70;;
7753;SDS011;3921;42.266;23.122;2022-11-27T22:27:42;13.60;;;8.20;;
7753;SDS011;3921;42.266;23.122;2022-11-27T22:30:09;10.93;;;8.13;;
7753;SDS011;3921;42.266;23.122;2022-11-27T22:32:36;12.80;;;8.73;;
7753;SDS011;3921;42.266;23.122;2022-11-27T22:35:04;10.97;;;8.67;;
7753;SDS011;3921;42.266;23.122;2022-11-27T22:37:33;10.67;;;7.57;;
7753;SDS011;3921;42.266;23.122;2022-11-27T22:40:00;12.47;;;8.67;;
7753;SDS011;3921;42.266;23.122;2022-11-27T22:42:27;14.27;;;8.00;;
7753;SDS011;3921;42.266;23.122;2022-11-27T22:44:56;12.30;;;8.37;;
7753;SDS011;3921;42.266;23.122;2022-11-27T22:47:23;11.13;;;8.27;;
7753;SDS011;3921;42.266;23.122;2022-11-27T22:49:51;11.33;;;7.80;;
7753;SDS011;3921;42.266;23.122;2022-11-27T22:52:18;13.13;;;8.50;;
7753;SDS011;3921;42.266;23.122;2022-11-27T22:54:48;13.63;;;8.17;;
7753;SDS011;3921;42.266;23.122;2022-11-27T22:57:15;13.87;;;8.33;;
7753;SDS011;3921;42.266;23.122;2022-11-27T22:59:44;13.13;;;8.03;;
7753;SDS011;3921;42.266;23.122;2022-11-27T23:02:14;13.70;;;8.70;;
7753;SDS011;3921;42.266;23.122;2022-11-27T23:04:46;13.67;;;8.33;;
7753;SDS011;3921;42.266;23.122;2022-11-27T23:07:13;12.70;;;8.30;;
7753;SDS011;3921;42.266;23.122;2022-11-27T23:09:42;14.20;;;8.27;;
7753;SDS011;3921;42.266;23.122;2022-11-27T23:12:30;11.53;;;7.77;;
7753;SDS011;3921;42.266;23.122;2022-11-27T23:15:08;11.90;;;8.17;;
7753;SDS011;3921;42.266;23.122;2022-11-27T23:18:26;12.33;;;7.90;;
7753;SDS011;3921;42.266;23.122;2022-11-27T23:20:53;12.83;;;8.00;;
7753;SDS011;3921;42.266;23.122;2022-11-27T23:23:22;10.97;;;8.10;;
7753;SDS011;3921;42.266;23.122;2022-11-27T23:33:14;10.17;;;7.03;;
7753;SDS011;3921;42.266;23.122;2022-11-27T23:35:41;14.13;;;7.27;;
7753;SDS011;3921;42.266;23.122;2022-11-27T23:38:08;10.83;;;6.87;;
7753;SDS011;3921;42.266;23.122;2022-11-27T23:40:37;10.20;;;7.47;;
7753;SDS011;3921;42.266;23.122;2022-11-27T23:43:04;12.60;;;7.87;;
7753;SDS011;3921;42.266;23.122;2022-11-27T23:45:32;13.87;;;9.07;;
7753;SDS011;3921;42.266;23.122;2022-11-27T23:48:04;13.23;;;8.90;;
7753;SDS011;3921;42.266;23.122;2022-11-27T23:50:36;13.03;;;8.40;;
7753;SDS011;3921;42.266;23.122;2022-11-27T23:53:10;12.80;;;8.40;;
7753;SDS011;3921;42.266;23.122;2022-11-27T23:55:38;16.07;;;8.43;;
7753;SDS011;3921;42.266;23.122;2022-11-27T23:58:05;14.90;;;9.10;;
